Exy Johnson — WDB3395 — position and weather

sailwx.info

Track history (hours):
 
Tides and Currents Weather Stations Pressure Air Temp Water Temp Dewpoint Dewpoint Depression Visibility Wind Speed Wind Dir Waves Ship Positions

Exy Johnson (United States)

Ship's website: http://www.lamitopsail.org/index.asp

Owner: Los Angeles Maritime Institute, San Pedro, CA. More information available from US FCC via Universal Licensing System and Coast Guard Vessel Documentation Center.

Last reported at 2017-Oct-17 03:14 UTC. Time now 2017-Oct-17 06:08 UTC.
Position N 33°44' W 118°17'.

Length 34 m; draft 3.7 m.

Type: Sailing vessel. MMSI: 366883970.

Date/timePositionNaut miles runAvg speedWind from/ knotsBaromVisibWave heightAir tempDewpointWater temp
2017-Oct-17 03:14N 33°44' W 118°17'0 0.0
2017-Oct-17 02:52N 33°44' W 118°17'0 0.0
2017-Oct-17 02:29N 33°44' W 118°17'0 0.0
2017-Oct-17 01:59N 33°44' W 118°17'0 0.0
2017-Oct-17 01:30N 33°44' W 118°17'0 0.0
2017-Oct-17 01:00N 33°44' W 118°17'0 0.0
2017-Oct-17 00:29N 33°44' W 118°17'0 0.0
2017-Oct-17 00:00N 33°44' W 118°17'0 0.0
2017-Oct-16 23:29N 33°44' W 118°17'0 0.0
2017-Oct-16 23:00N 33°44' W 118°17'0 0.0
2017-Oct-16 22:30N 33°44' W 118°17'0 0.0
2017-Oct-16 22:00N 33°44' W 118°17'0 0.0
2017-Oct-16 21:30N 33°44' W 118°17'0 0.0
2017-Oct-16 21:00N 33°44' W 118°17'0 0.0
2017-Oct-16 20:30N 33°44' W 118°17'0 0.7
2017-Oct-16 20:00N 33°44' W 118°16'1 2.2
2017-Oct-16 19:30N 33°43' W 118°15'1 2.1
2017-Oct-16 19:00N 33°42' W 118°15'0 0.7
2017-Oct-16 18:30N 33°42' W 118°15'1 2.7
2017-Oct-16 18:00N 33°43' W 118°16'2 3.6
2017-Oct-16 17:29N 33°45' W 118°16'1 1.4
2017-Oct-16 17:00N 33°44' W 118°17'0 0.0
2017-Oct-14 22:59N 33°44' W 118°17'2 3.3
2017-Oct-14 22:31N 33°43' W 118°15'2 3.3
2017-Oct-14 21:59N 33°43' W 118°13'0 0.3
2017-Oct-14 21:30N 33°43' W 118°13'2 4.5
2017-Oct-14 21:00N 33°43' W 118°16'0 1.0
2017-Oct-14 20:31N 33°43' W 118°16'0 0.0
2017-Oct-14 20:00N 33°43' W 118°16'1 1.8
2017-Oct-14 19:30N 33°44' W 118°17'0 0.0
2017-Oct-14 19:01N 33°44' W 118°17'2 3.5
2017-Oct-14 18:31N 33°43' W 118°15'3 4.1
2017-Oct-14 17:54N 33°42' W 118°18'2 5.1
2017-Oct-14 17:30N 33°42' W 118°21'1 2.9
2017-Oct-14 17:00N 33°42' W 118°19'2 4.9
2017-Oct-14 16:30N 33°42' W 118°16'2 4.3
2017-Oct-14 16:00N 33°44' W 118°17'0 0.0
2017-Oct-13 18:23N 33°44' W 118°17'1 2.4
2017-Oct-13 18:00N 33°43' W 118°16'4 5.4
2017-Oct-13 17:11N 33°39' W 118°16'2 5.8
2017-Oct-13 16:55N 33°37' W 118°17'3 5.6
2017-Oct-13 16:19N 33°34' W 118°18'7 5.7
2017-Oct-13 15:04N 33°27' W 118°21'1 6.3
2017-Oct-13 14:56N 33°26' W 118°21'3 0.6
2017-Oct-13 10:20N 33°24' W 118°22'0 0.0
2017-Oct-13 07:34N 33°24' W 118°22'0 0.0
2017-Oct-13 07:12N 33°24' W 118°22'0 0.0
2017-Oct-13 06:39N 33°24' W 118°22'0 0.0
2017-Oct-13 06:24N 33°24' W 118°22'6 0.5
2017-Oct-12 20:14N 33°20' W 118°18'1 2.1
2017-Oct-12 19:47N 33°19' W 118°18'10 0.4
2017-Oct-11 20:13N 33°23' W 118°29'0 0.0
2017-Oct-11 19:56N 33°23' W 118°29'0 0.0
2017-Oct-11 19:09N 33°23' W 118°29'0 0.0
2017-Oct-11 18:52N 33°23' W 118°29'4 1.7
2017-Oct-11 16:40N 33°23' W 118°33'5 0.1
2017-Oct-10 00:20N 33°27' W 118°29'0 1.0
2017-Oct-09 23:58N 33°27' W 118°29'2 5.0
2017-Oct-09 23:30N 33°29' W 118°27'3 6.0
2017-Oct-09 23:00N 33°31' W 118°25'3 5.1
2017-Oct-09 22:30N 33°32' W 118°22'3 6.1
2017-Oct-09 22:00N 33°34' W 118°19'3 6.2
2017-Oct-09 21:30N 33°36' W 118°17'3 6.6
2017-Oct-09 21:00N 33°40' W 118°16'3 6.2
2017-Oct-09 20:30N 33°43' W 118°15'2 2.4
2017-Oct-09 19:45N 33°44' W 118°17'0 0.0
2017-Oct-09 19:21N 33°44' W 118°17'0 0.0
2017-Oct-09 18:57N 33°44' W 118°17'0 0.0
2017-Oct-09 17:57N 33°44' W 118°17'0 0.0
2017-Oct-09 16:33N 33°44' W 118°17'0 0.0
2017-Oct-09 16:08N 33°44' W 118°17'0 0.0
2017-Oct-09 15:56N 33°44' W 118°17'0 0.0
2017-Oct-09 02:28N 33°44' W 118°17'0 0.0
2017-Oct-09 01:52N 33°44' W 118°17'0 0.0
2017-Oct-08 23:39N 33°44' W 118°17'0 0.0
2017-Oct-08 23:27N 33°44' W 118°17'0 0.0
2017-Oct-08 22:33N 33°44' W 118°17'0 0.0
2017-Oct-08 22:27N 33°44' W 118°17'0 0.0
2017-Oct-08 21:50N 33°44' W 118°17'0 0.0
2017-Oct-08 20:49N 33°44' W 118°17'0 0.0
2017-Oct-08 20:26N 33°44' W 118°17'0 0.0
2017-Oct-08 19:18N 33°44' W 118°17'0 0.0
2017-Oct-08 18:49N 33°44' W 118°17'0 0.0
2017-Oct-08 18:15N 33°44' W 118°17'0 0.0
2017-Oct-08 17:49N 33°44' W 118°17'0 0.0
2017-Oct-08 17:27N 33°44' W 118°17'0 0.0
2017-Oct-08 17:00N 33°44' W 118°17'0 0.0
2017-Oct-08 16:31N 33°44' W 118°17'0 0.0
2017-Oct-08 15:58N 33°44' W 118°17'0 0.0
2017-Oct-08 15:30N 33°44' W 118°17'0 0.0
2017-Oct-08 15:00N 33°44' W 118°17'0 0.0
2017-Oct-08 14:30N 33°44' W 118°17'0 0.0
2017-Oct-08 14:00N 33°44' W 118°17'0 0.0
2017-Oct-08 13:30N 33°44' W 118°17'0 0.0
2017-Oct-08 13:00N 33°44' W 118°17'0 0.0
2017-Oct-08 12:30N 33°44' W 118°17'0 0.0
2017-Oct-08 11:59N 33°44' W 118°17'0 0.0
2017-Oct-08 11:29N 33°44' W 118°17'0 0.0
2017-Oct-08 11:00N 33°44' W 118°17'0 0.0
2017-Oct-08 10:30N 33°44' W 118°17'0 0.0
2017-Oct-08 10:01N 33°44' W 118°17'0 0.0
2017-Oct-08 09:30N 33°44' W 118°17'0 0.0
2017-Oct-08 09:00N 33°44' W 118°17'0 0.0
2017-Oct-08 08:30N 33°44' W 118°17'0 0.0
2017-Oct-08 08:00N 33°44' W 118°17'0 0.0
2017-Oct-08 07:31N 33°44' W 118°17'0 0.0
2017-Oct-08 07:00N 33°44' W 118°17'0 0.0
2017-Oct-08 06:30N 33°44' W 118°17'0 0.0
2017-Oct-08 06:00N 33°44' W 118°17'0 0.0
2017-Oct-08 05:31N 33°44' W 118°17'0 0.0
2017-Oct-08 05:00N 33°44' W 118°17'0 0.0
2017-Oct-08 04:30N 33°44' W 118°17'0 0.0
2017-Oct-08 04:00N 33°44' W 118°17'0 0.0
2017-Oct-08 03:30N 33°44' W 118°17'0 0.0
2017-Oct-08 03:00N 33°44' W 118°17'0 0.0
2017-Oct-08 02:30N 33°44' W 118°17'0 0.0
2017-Oct-08 02:00N 33°44' W 118°17'0 0.0
2017-Oct-08 01:30N 33°44' W 118°17'0 0.0
2017-Oct-08 01:00N 33°44' W 118°17'0 0.0
2017-Oct-08 00:30N 33°44' W 118°17'0 0.0
2017-Oct-08 00:01N 33°44' W 118°17'0 0.2
2017-Oct-07 23:31N 33°44' W 118°17'2 4.6
2017-Oct-07 23:00N 33°42' W 118°15'2 3.9
2017-Oct-07 22:30N 33°41' W 118°13'1 2.1
2017-Oct-07 22:00N 33°42' W 118°13'1 1.7
2017-Oct-07 21:30N 33°41' W 118°12'1 1.7
2017-Oct-07 21:00N 33°42' W 118°13'0 0.8
2017-Oct-07 20:30N 33°42' W 118°14'1 2.4
2017-Oct-07 20:00N 33°42' W 118°15'2 3.5
2017-Oct-07 19:30N 33°44' W 118°16'0 1.0
2017-Oct-07 19:00N 33°44' W 118°17'0 0.0
2017-Oct-07 18:30N 33°44' W 118°17'0 0.0
2017-Oct-07 18:00N 33°44' W 118°17'0 0.0
2017-Oct-07 17:30N 33°44' W 118°17'0 0.0
2017-Oct-07 17:00N 33°44' W 118°17'0 0.0
2017-Oct-07 16:30N 33°44' W 118°17'  
Track history (hours):
 
Tides and Currents Weather Stations Pressure Air Temp Water Temp Dewpoint Dewpoint Depression Visibility Wind Speed Wind Dir Waves Ship Positions

Exy Johnson (United States)

Ship's website: http://www.lamitopsail.org/index.asp

Owner: Los Angeles Maritime Institute, San Pedro, CA. More information available from US FCC via Universal Licensing System and Coast Guard Vessel Documentation Center.

Last reported at 2017-Oct-17 03:14 UTC. Time now 2017-Oct-17 06:08 UTC.
Position N 33°44' W 118°17'.

Length 34 m; draft 3.7 m.

Type: Sailing vessel. MMSI: 366883970.

Date/timePositionNaut miles runAvg speedWind from/ knotsBaromVisibWave heightAir tempDewpointWater temp
2017-Oct-17 03:14N 33°44' W 118°17'0 0.0
2017-Oct-17 02:52N 33°44' W 118°17'0 0.0
2017-Oct-17 02:29N 33°44' W 118°17'0 0.0
2017-Oct-17 01:59N 33°44' W 118°17'0 0.0
2017-Oct-17 01:30N 33°44' W 118°17'0 0.0
2017-Oct-17 01:00N 33°44' W 118°17'0 0.0
2017-Oct-17 00:29N 33°44' W 118°17'0 0.0
2017-Oct-17 00:00N 33°44' W 118°17'0 0.0
2017-Oct-16 23:29N 33°44' W 118°17'0 0.0
2017-Oct-16 23:00N 33°44' W 118°17'0 0.0
2017-Oct-16 22:30N 33°44' W 118°17'0 0.0
2017-Oct-16 22:00N 33°44' W 118°17'0 0.0
2017-Oct-16 21:30N 33°44' W 118°17'0 0.0
2017-Oct-16 21:00N 33°44' W 118°17'0 0.0
2017-Oct-16 20:30N 33°44' W 118°17'0 0.7
2017-Oct-16 20:00N 33°44' W 118°16'1 2.2
2017-Oct-16 19:30N 33°43' W 118°15'1 2.1
2017-Oct-16 19:00N 33°42' W 118°15'0 0.7
2017-Oct-16 18:30N 33°42' W 118°15'1 2.7
2017-Oct-16 18:00N 33°43' W 118°16'2 3.6
2017-Oct-16 17:29N 33°45' W 118°16'1 1.4
2017-Oct-16 17:00N 33°44' W 118°17'0 0.0
2017-Oct-14 22:59N 33°44' W 118°17'2 3.3
2017-Oct-14 22:31N 33°43' W 118°15'2 3.3
2017-Oct-14 21:59N 33°43' W 118°13'0 0.3
2017-Oct-14 21:30N 33°43' W 118°13'2 4.5
2017-Oct-14 21:00N 33°43' W 118°16'0 1.0
2017-Oct-14 20:31N 33°43' W 118°16'0 0.0
2017-Oct-14 20:00N 33°43' W 118°16'1 1.8
2017-Oct-14 19:30N 33°44' W 118°17'0 0.0
2017-Oct-14 19:01N 33°44' W 118°17'2 3.5
2017-Oct-14 18:31N 33°43' W 118°15'3 4.1
2017-Oct-14 17:54N 33°42' W 118°18'2 5.1
2017-Oct-14 17:30N 33°42' W 118°21'1 2.9
2017-Oct-14 17:00N 33°42' W 118°19'2 4.9
2017-Oct-14 16:30N 33°42' W 118°16'2 4.3
2017-Oct-14 16:00N 33°44' W 118°17'0 0.0
2017-Oct-13 18:23N 33°44' W 118°17'1 2.4
2017-Oct-13 18:00N 33°43' W 118°16'4 5.4
2017-Oct-13 17:11N 33°39' W 118°16'2 5.8
2017-Oct-13 16:55N 33°37' W 118°17'3 5.6
2017-Oct-13 16:19N 33°34' W 118°18'7 5.7
2017-Oct-13 15:04N 33°27' W 118°21'1 6.3
2017-Oct-13 14:56N 33°26' W 118°21'3 0.6
2017-Oct-13 10:20N 33°24' W 118°22'0 0.0
2017-Oct-13 07:34N 33°24' W 118°22'0 0.0
2017-Oct-13 07:12N 33°24' W 118°22'0 0.0
2017-Oct-13 06:39N 33°24' W 118°22'0 0.0
2017-Oct-13 06:24N 33°24' W 118°22'6 0.5
2017-Oct-12 20:14N 33°20' W 118°18'1 2.1
2017-Oct-12 19:47N 33°19' W 118°18'10 0.4
2017-Oct-11 20:13N 33°23' W 118°29'0 0.0
2017-Oct-11 19:56N 33°23' W 118°29'0 0.0
2017-Oct-11 19:09N 33°23' W 118°29'0 0.0
2017-Oct-11 18:52N 33°23' W 118°29'4 1.7
2017-Oct-11 16:40N 33°23' W 118°33'5 0.1
2017-Oct-10 00:20N 33°27' W 118°29'0 1.0
2017-Oct-09 23:58N 33°27' W 118°29'2 5.0
2017-Oct-09 23:30N 33°29' W 118°27'3 6.0
2017-Oct-09 23:00N 33°31' W 118°25'3 5.1
2017-Oct-09 22:30N 33°32' W 118°22'3 6.1
2017-Oct-09 22:00N 33°34' W 118°19'3 6.2
2017-Oct-09 21:30N 33°36' W 118°17'3 6.6
2017-Oct-09 21:00N 33°40' W 118°16'3 6.2
2017-Oct-09 20:30N 33°43' W 118°15'2 2.4
2017-Oct-09 19:45N 33°44' W 118°17'0 0.0
2017-Oct-09 19:21N 33°44' W 118°17'0 0.0
2017-Oct-09 18:57N 33°44' W 118°17'0 0.0
2017-Oct-09 17:57N 33°44' W 118°17'0 0.0
2017-Oct-09 16:33N 33°44' W 118°17'0 0.0
2017-Oct-09 16:08N 33°44' W 118°17'0 0.0
2017-Oct-09 15:56N 33°44' W 118°17'0 0.0
2017-Oct-09 02:28N 33°44' W 118°17'0 0.0
2017-Oct-09 01:52N 33°44' W 118°17'0 0.0
2017-Oct-08 23:39N 33°44' W 118°17'0 0.0
2017-Oct-08 23:27N 33°44' W 118°17'0 0.0
2017-Oct-08 22:33N 33°44' W 118°17'0 0.0
2017-Oct-08 22:27N 33°44' W 118°17'0 0.0
2017-Oct-08 21:50N 33°44' W 118°17'0 0.0
2017-Oct-08 20:49N 33°44' W 118°17'0 0.0
2017-Oct-08 20:26N 33°44' W 118°17'0 0.0
2017-Oct-08 19:18N 33°44' W 118°17'0 0.0
2017-Oct-08 18:49N 33°44' W 118°17'0 0.0
2017-Oct-08 18:15N 33°44' W 118°17'0 0.0
2017-Oct-08 17:49N 33°44' W 118°17'0 0.0
2017-Oct-08 17:27N 33°44' W 118°17'0 0.0
2017-Oct-08 17:00N 33°44' W 118°17'0 0.0
2017-Oct-08 16:31N 33°44' W 118°17'0 0.0
2017-Oct-08 15:58N 33°44' W 118°17'0 0.0
2017-Oct-08 15:30N 33°44' W 118°17'0 0.0
2017-Oct-08 15:00N 33°44' W 118°17'0 0.0
2017-Oct-08 14:30N 33°44' W 118°17'0 0.0
2017-Oct-08 14:00N 33°44' W 118°17'0 0.0
2017-Oct-08 13:30N 33°44' W 118°17'0 0.0
2017-Oct-08 13:00N 33°44' W 118°17'0 0.0
2017-Oct-08 12:30N 33°44' W 118°17'0 0.0
2017-Oct-08 11:59N 33°44' W 118°17'0 0.0
2017-Oct-08 11:29N 33°44' W 118°17'0 0.0
2017-Oct-08 11:00N 33°44' W 118°17'0 0.0
2017-Oct-08 10:30N 33°44' W 118°17'0 0.0
2017-Oct-08 10:01N 33°44' W 118°17'0 0.0
2017-Oct-08 09:30N 33°44' W 118°17'0 0.0
2017-Oct-08 09:00N 33°44' W 118°17'0 0.0
2017-Oct-08 08:30N 33°44' W 118°17'0 0.0
2017-Oct-08 08:00N 33°44' W 118°17'0 0.0
2017-Oct-08 07:31N 33°44' W 118°17'0 0.0
2017-Oct-08 07:00N 33°44' W 118°17'0 0.0
2017-Oct-08 06:30N 33°44' W 118°17'0 0.0
2017-Oct-08 06:00N 33°44' W 118°17'0 0.0
2017-Oct-08 05:31N 33°44' W 118°17'0 0.0
2017-Oct-08 05:00N 33°44' W 118°17'0 0.0
2017-Oct-08 04:30N 33°44' W 118°17'0 0.0
2017-Oct-08 04:00N 33°44' W 118°17'0 0.0
2017-Oct-08 03:30N 33°44' W 118°17'0 0.0
2017-Oct-08 03:00N 33°44' W 118°17'0 0.0
2017-Oct-08 02:30N 33°44' W 118°17'0 0.0
2017-Oct-08 02:00N 33°44' W 118°17'0 0.0
2017-Oct-08 01:30N 33°44' W 118°17'0 0.0
2017-Oct-08 01:00N 33°44' W 118°17'0 0.0
2017-Oct-08 00:30N 33°44' W 118°17'0 0.0
2017-Oct-08 00:01N 33°44' W 118°17'0 0.2
2017-Oct-07 23:31N 33°44' W 118°17'2 4.6
2017-Oct-07 23:00N 33°42' W 118°15'2 3.9
2017-Oct-07 22:30N 33°41' W 118°13'1 2.1
2017-Oct-07 22:00N 33°42' W 118°13'1 1.7
2017-Oct-07 21:30N 33°41' W 118°12'1 1.7
2017-Oct-07 21:00N 33°42' W 118°13'0 0.8
2017-Oct-07 20:30N 33°42' W 118°14'1 2.4
2017-Oct-07 20:00N 33°42' W 118°15'2 3.5
2017-Oct-07 19:30N 33°44' W 118°16'0 1.0
2017-Oct-07 19:00N 33°44' W 118°17'0 0.0
2017-Oct-07 18:30N 33°44' W 118°17'0 0.0
2017-Oct-07 18:00N 33°44' W 118°17'0 0.0
2017-Oct-07 17:30N 33°44' W 118°17'0 0.0
2017-Oct-07 17:00N 33°44' W 118°17'0 0.0
2017-Oct-07 16:30N 33°44' W 118°17'  

Dump ship's entire track history